sensor_id;sensor_type;location;lat;lon;timestamp;pressure;altitude;pressure_sealevel;temperature;humidity
5883;BME280;2967;51.488;6.618;2024-02-04T00:05:13;102086.03;;;11.22;100.00
5883;BME280;2967;51.488;6.618;2024-02-04T00:10:16;102001.66;;;10.59;100.00
5883;BME280;2967;51.488;6.618;2024-02-04T00:15:21;102046.88;;;10.73;100.00
5883;BME280;2967;51.488;6.618;2024-02-04T00:20:24;102053.41;;;10.85;100.00
5883;BME280;2967;51.488;6.618;2024-02-04T00:25:29;102028.50;;;10.70;100.00
5883;BME280;2967;51.488;6.618;2024-02-04T00:30:33;102057.91;;;10.83;100.00
5883;BME280;2967;51.488;6.618;2024-02-04T00:35:36;102057.25;;;10.78;100.00
5883;BME280;2967;51.488;6.618;2024-02-04T00:40:39;101983.00;;;10.24;100.00
5883;BME280;2967;51.488;6.618;2024-02-04T00:45:43;102029.72;;;10.43;100.00
5883;BME280;2967;51.488;6.618;2024-02-04T00:50:46;102063.69;;;10.72;100.00
5883;BME280;2967;51.488;6.618;2024-02-04T00:55:49;102053.88;;;10.74;100.00
5883;BME280;2967;51.488;6.618;2024-02-04T01:00:55;102058.19;;;10.77;100.00
5883;BME280;2967;51.488;6.618;2024-02-04T01:05:58;102050.13;;;10.60;100.00
5883;BME280;2967;51.488;6.618;2024-02-04T01:11:01;102070.09;;;10.67;100.00
5883;BME280;2967;51.488;6.618;2024-02-04T01:16:05;102059.88;;;10.78;100.00
5883;BME280;2967;51.488;6.618;2024-02-04T01:21:08;102068.78;;;10.95;100.00
5883;BME280;2967;51.488;6.618;2024-02-04T01:26:11;102061.13;;;11.08;100.00
5883;BME280;2967;51.488;6.618;2024-02-04T01:31:15;102052.34;;;11.07;100.00
5883;BME280;2967;51.488;6.618;2024-02-04T01:36:18;102064.06;;;11.20;100.00
5883;BME280;2967;51.488;6.618;2024-02-04T01:41:20;102036.38;;;11.09;100.00
5883;BME280;2967;51.488;6.618;2024-02-04T01:46:25;102055.31;;;11.37;100.00
5883;BME280;2967;51.488;6.618;2024-02-04T01:51:28;102055.09;;;11.41;100.00
5883;BME280;2967;51.488;6.618;2024-02-04T01:56:30;102050.72;;;11.40;100.00
5883;BME280;2967;51.488;6.618;2024-02-04T02:01:35;102057.75;;;11.41;100.00
5883;BME280;2967;51.488;6.618;2024-02-04T02:06:38;101954.19;;;10.75;100.00
5883;BME280;2967;51.488;6.618;2024-02-04T02:11:46;102025.53;;;11.32;100.00
5883;BME280;2967;51.488;6.618;2024-02-04T02:16:51;102050.56;;;11.43;100.00
5883;BME280;2967;51.488;6.618;2024-02-04T02:21:57;102060.34;;;11.43;100.00
5883;BME280;2967;51.488;6.618;2024-02-04T02:27:05;102049.56;;;11.46;100.00
5883;BME280;2967;51.488;6.618;2024-02-04T02:32:08;102059.03;;;11.51;100.00
5883;BME280;2967;51.488;6.618;2024-02-04T02:37:20;102033.25;;;11.36;100.00
5883;BME280;2967;51.488;6.618;2024-02-04T02:42:26;102044.88;;;11.34;100.00
5883;BME280;2967;51.488;6.618;2024-02-04T02:47:29;102022.75;;;11.35;100.00
5883;BME280;2967;51.488;6.618;2024-02-04T02:52:33;102007.84;;;11.32;100.00
5883;BME280;2967;51.488;6.618;2024-02-04T02:57:37;102045.72;;;11.53;100.00
5883;BME280;2967;51.488;6.618;2024-02-04T03:02:40;102025.78;;;11.44;100.00
5883;BME280;2967;51.488;6.618;2024-02-04T03:07:43;102037.47;;;11.59;100.00
5883;BME280;2967;51.488;6.618;2024-02-04T03:12:47;102021.19;;;11.66;100.00
5883;BME280;2967;51.488;6.618;2024-02-04T03:17:50;102035.63;;;11.78;100.00
5883;BME280;2967;51.488;6.618;2024-02-04T03:22:54;102026.03;;;11.75;100.00
5883;BME280;2967;51.488;6.618;2024-02-04T03:27:59;102027.84;;;11.75;100.00
5883;BME280;2967;51.488;6.618;2024-02-04T03:33:02;102020.94;;;11.71;100.00
5883;BME280;2967;51.488;6.618;2024-02-04T03:38:06;101980.13;;;11.56;100.00
5883;BME280;2967;51.488;6.618;2024-02-04T03:43:10;102009.03;;;11.62;100.00
5883;BME280;2967;51.488;6.618;2024-02-04T03:48:13;102015.69;;;11.52;100.00
5883;BME280;2967;51.488;6.618;2024-02-04T03:53:16;101912.91;;;11.06;100.00
5883;BME280;2967;51.488;6.618;2024-02-04T03:58:22;101980.50;;;11.67;100.00
5883;BME280;2967;51.488;6.618;2024-02-04T04:03:30;101941.69;;;11.14;100.00
5883;BME280;2967;51.488;6.618;2024-02-04T04:08:35;101976.66;;;11.56;100.00
5883;BME280;2967;51.488;6.618;2024-02-04T04:13:39;102019.00;;;11.74;100.00
5883;BME280;2967;51.488;6.618;2024-02-04T04:24:11;101970.94;;;11.46;100.00
5883;BME280;2967;51.488;6.618;2024-02-04T04:29:18;102036.56;;;11.77;100.00
5883;BME280;2967;51.488;6.618;2024-02-04T04:34:21;102056.91;;;11.76;100.00
5883;BME280;2967;51.488;6.618;2024-02-04T04:39:24;102062.59;;;11.69;100.00
5883;BME280;2967;51.488;6.618;2024-02-04T04:44:28;102044.69;;;11.74;100.00
5883;BME280;2967;51.488;6.618;2024-02-04T04:49:30;101997.06;;;11.54;100.00
5883;BME280;2967;51.488;6.618;2024-02-04T04:54:33;102011.69;;;11.62;100.00
5883;BME280;2967;51.488;6.618;2024-02-04T04:59:38;101958.78;;;11.42;100.00
5883;BME280;2967;51.488;6.618;2024-02-04T05:04:42;102012.72;;;11.77;100.00
5883;BME280;2967;51.488;6.618;2024-02-04T05:09:45;102014.34;;;11.79;100.00
5883;BME280;2967;51.488;6.618;2024-02-04T05:14:49;102003.44;;;11.68;100.00
5883;BME280;2967;51.488;6.618;2024-02-04T05:19:52;101958.50;;;11.48;100.00
5883;BME280;2967;51.488;6.618;2024-02-04T05:24:55;102024.16;;;11.77;100.00
5883;BME280;2967;51.488;6.618;2024-02-04T05:29:59;101998.50;;;11.78;100.00
5883;BME280;2967;51.488;6.618;2024-02-04T05:35:04;102008.19;;;11.79;100.00
5883;BME280;2967;51.488;6.618;2024-02-04T05:40:10;101988.53;;;11.66;100.00
5883;BME280;2967;51.488;6.618;2024-02-04T05:45:16;101978.00;;;11.64;100.00
5883;BME280;2967;51.488;6.618;2024-02-04T05:50:19;101970.63;;;11.52;100.00
5883;BME280;2967;51.488;6.618;2024-02-04T05:55:22;101979.47;;;11.70;100.00
5883;BME280;2967;51.488;6.618;2024-02-04T06:00:26;101904.94;;;11.25;100.00
5883;BME280;2967;51.488;6.618;2024-02-04T06:05:29;101973.19;;;11.72;100.00
5883;BME280;2967;51.488;6.618;2024-02-04T06:10:32;101977.97;;;11.47;100.00
5883;BME280;2967;51.488;6.618;2024-02-04T06:15:36;101964.41;;;11.53;100.00
5883;BME280;2967;51.488;6.618;2024-02-04T06:20:46;101977.72;;;11.70;100.00
5883;BME280;2967;51.488;6.618;2024-02-04T06:25:48;101963.97;;;11.62;100.00
5883;BME280;2967;51.488;6.618;2024-02-04T06:30:53;101947.53;;;11.20;100.00
5883;BME280;2967;51.488;6.618;2024-02-04T06:35:55;101973.28;;;11.52;100.00
5883;BME280;2967;51.488;6.618;2024-02-04T06:40:58;101936.63;;;11.26;100.00
5883;BME280;2967;51.488;6.618;2024-02-04T06:46:04;101946.84;;;11.51;100.00
5883;BME280;2967;51.488;6.618;2024-02-04T06:51:08;101944.53;;;11.45;100.00
5883;BME280;2967;51.488;6.618;2024-02-04T06:56:11;101939.13;;;11.46;100.00
5883;BME280;2967;51.488;6.618;2024-02-04T07:01:16;101908.91;;;11.33;100.00
5883;BME280;2967;51.488;6.618;2024-02-04T07:06:19;101960.00;;;11.71;100.00
5883;BME280;2967;51.488;6.618;2024-02-04T07:11:24;101922.84;;;11.37;100.00
5883;BME280;2967;51.488;6.618;2024-02-04T07:16:28;101953.88;;;11.52;100.00
5883;BME280;2967;51.488;6.618;2024-02-04T07:21:31;101971.94;;;11.62;100.00
5883;BME280;2967;51.488;6.618;2024-02-04T07:26:34;101931.50;;;11.40;100.00
5883;BME280;2967;51.488;6.618;2024-02-04T07:31:38;101972.69;;;11.64;100.00
5883;BME280;2967;51.488;6.618;2024-02-04T07:36:41;101898.84;;;11.23;100.00
5883;BME280;2967;51.488;6.618;2024-02-04T07:41:44;101956.97;;;11.61;100.00
5883;BME280;2967;51.488;6.618;2024-02-04T07:46:49;101972.31;;;11.72;100.00
5883;BME280;2967;51.488;6.618;2024-02-04T07:51:52;101956.56;;;11.69;100.00
5883;BME280;2967;51.488;6.618;2024-02-04T07:56:55;101958.50;;;11.65;100.00
5883;BME280;2967;51.488;6.618;2024-02-04T08:01:59;101972.53;;;11.67;100.00
5883;BME280;2967;51.488;6.618;2024-02-04T08:07:01;101885.13;;;11.15;100.00
5883;BME280;2967;51.488;6.618;2024-02-04T08:12:06;101922.09;;;11.35;100.00
5883;BME280;2967;51.488;6.618;2024-02-04T08:17:12;101960.38;;;11.63;100.00
5883;BME280;2967;51.488;6.618;2024-02-04T08:22:14;101956.03;;;11.62;100.00
5883;BME280;2967;51.488;6.618;2024-02-04T08:27:22;101954.25;;;11.63;100.00
5883;BME280;2967;51.488;6.618;2024-02-04T08:32:28;101968.34;;;11.63;100.00
5883;BME280;2967;51.488;6.618;2024-02-04T08:37:36;101959.06;;;11.72;100.00
5883;BME280;2967;51.488;6.618;2024-02-04T08:42:39;101958.22;;;11.71;100.00
5883;BME280;2967;51.488;6.618;2024-02-04T08:47:44;101914.28;;;11.49;100.00
5883;BME280;2967;51.488;6.618;2024-02-04T08:52:47;101943.84;;;11.75;100.00
5883;BME280;2967;51.488;6.618;2024-02-04T08:57:50;101952.84;;;11.73;100.00
5883;BME280;2967;51.488;6.618;2024-02-04T09:02:56;101947.56;;;11.54;100.00
5883;BME280;2967;51.488;6.618;2024-02-04T09:07:59;101944.25;;;11.68;100.00
5883;BME280;2967;51.488;6.618;2024-02-04T09:13:03;101920.28;;;11.52;100.00
5883;BME280;2967;51.488;6.618;2024-02-04T09:18:08;101952.75;;;11.74;100.00
5883;BME280;2967;51.488;6.618;2024-02-04T09:23:12;101948.09;;;11.79;100.00
5883;BME280;2967;51.488;6.618;2024-02-04T09:28:15;101935.06;;;11.75;100.00
5883;BME280;2967;51.488;6.618;2024-02-04T09:33:19;101943.16;;;11.72;100.00
5883;BME280;2967;51.488;6.618;2024-02-04T09:38:24;101964.94;;;11.78;100.00
5883;BME280;2967;51.488;6.618;2024-02-04T09:43:27;101924.09;;;11.47;100.00
5883;BME280;2967;51.488;6.618;2024-02-04T09:48:43;101941.00;;;11.63;100.00
5883;BME280;2967;51.488;6.618;2024-02-04T09:53:53;101921.28;;;11.50;100.00
5883;BME280;2967;51.488;6.618;2024-02-04T09:58:57;101828.00;;;10.92;100.00
5883;BME280;2967;51.488;6.618;2024-02-04T10:04:05;101959.63;;;11.78;100.00
5883;BME280;2967;51.488;6.618;2024-02-04T10:09:08;101972.94;;;11.77;100.00
5883;BME280;2967;51.488;6.618;2024-02-04T10:14:11;101973.41;;;11.85;100.00
5883;BME280;2967;51.488;6.618;2024-02-04T10:19:20;101968.72;;;11.90;100.00
5883;BME280;2967;51.488;6.618;2024-02-04T10:24:26;101904.31;;;11.54;100.00
5883;BME280;2967;51.488;6.618;2024-02-04T10:29:29;101945.72;;;11.90;100.00
5883;BME280;2967;51.488;6.618;2024-02-04T10:34:48;101979.38;;;12.22;100.00
5883;BME280;2967;51.488;6.618;2024-02-04T10:39:52;101957.38;;;12.20;100.00
5883;BME280;2967;51.488;6.618;2024-02-04T10:45:22;101778.34;;;11.14;100.00
5883;BME280;2967;51.488;6.618;2024-02-04T10:50:41;101988.09;;;12.24;100.00
5883;BME280;2967;51.488;6.618;2024-02-04T10:55:49;101883.69;;;11.60;100.00
5883;BME280;2967;51.488;6.618;2024-02-04T11:00:52;101981.03;;;12.08;100.00
5883;BME280;2967;51.488;6.618;2024-02-04T11:06:03;101950.41;;;11.85;100.00
5883;BME280;2967;51.488;6.618;2024-02-04T11:11:05;101891.47;;;11.63;100.00
5883;BME280;2967;51.488;6.618;2024-02-04T11:16:19;101955.69;;;12.02;100.00
5883;BME280;2967;51.488;6.618;2024-02-04T11:21:43;101923.09;;;12.00;100.00
5883;BME280;2967;51.488;6.618;2024-02-04T11:26:50;101938.66;;;12.06;100.00
5883;BME280;2967;51.488;6.618;2024-02-04T11:31:53;101915.63;;;11.74;100.00
5883;BME280;2967;51.488;6.618;2024-02-04T11:37:01;101811.06;;;11.30;100.00
5883;BME280;2967;51.488;6.618;2024-02-04T11:42:14;101891.41;;;11.97;100.00
5883;BME280;2967;51.488;6.618;2024-02-04T11:47:24;101877.63;;;11.91;100.00
5883;BME280;2967;51.488;6.618;2024-02-04T11:52:28;101846.88;;;11.71;100.00
5883;BME280;2967;51.488;6.618;2024-02-04T11:57:34;101857.03;;;11.96;100.00
5883;BME280;2967;51.488;6.618;2024-02-04T12:02:44;101866.41;;;12.03;100.00
5883;BME280;2967;51.488;6.618;2024-02-04T12:07:48;101695.34;;;10.81;100.00
5883;BME280;2967;51.488;6.618;2024-02-04T12:12:52;101875.19;;;12.03;100.00
5883;BME280;2967;51.488;6.618;2024-02-04T12:18:05;101863.31;;;12.10;100.00
5883;BME280;2967;51.488;6.618;2024-02-04T12:23:10;101834.63;;;11.86;100.00
5883;BME280;2967;51.488;6.618;2024-02-04T12:28:13;101802.69;;;11.87;100.00
5883;BME280;2967;51.488;6.618;2024-02-04T12:33:17;101811.59;;;11.86;100.00
5883;BME280;2967;51.488;6.618;2024-02-04T12:38:22;101854.16;;;12.00;100.00
5883;BME280;2967;51.488;6.618;2024-02-04T12:43:29;101849.19;;;12.10;100.00
5883;BME280;2967;51.488;6.618;2024-02-04T12:48:42;101859.47;;;12.16;100.00
5883;BME280;2967;51.488;6.618;2024-02-04T12:53:48;101759.50;;;11.70;100.00
5883;BME280;2967;51.488;6.618;2024-02-04T12:59:29;101840.22;;;12.12;100.00
5883;BME280;2967;51.488;6.618;2024-02-04T13:04:34;101425.28;;;9.70;100.00
5883;BME280;2967;51.488;6.618;2024-02-04T13:09:44;101774.91;;;11.79;100.00
5883;BME280;2967;51.488;6.618;2024-02-04T13:14:47;101826.78;;;12.15;100.00
5883;BME280;2967;51.488;6.618;2024-02-04T13:19:51;101839.97;;;12.17;100.00
5883;BME280;2967;51.488;6.618;2024-02-04T13:24:56;101835.09;;;12.09;100.00
5883;BME280;2967;51.488;6.618;2024-02-04T13:30:02;101842.25;;;12.07;100.00
5883;BME280;2967;51.488;6.618;2024-02-04T13:35:06;101781.81;;;11.66;100.00
5883;BME280;2967;51.488;6.618;2024-02-04T13:40:22;101823.75;;;11.90;100.00
5883;BME280;2967;51.488;6.618;2024-02-04T13:45:26;101786.16;;;11.67;100.00
5883;BME280;2967;51.488;6.618;2024-02-04T13:50:37;101818.25;;;11.78;100.00
5883;BME280;2967;51.488;6.618;2024-02-04T13:55:41;101848.75;;;12.02;100.00
5883;BME280;2967;51.488;6.618;2024-02-04T14:00:47;101709.69;;;11.27;100.00
5883;BME280;2967;51.488;6.618;2024-02-04T14:05:50;101821.56;;;11.98;100.00
5883;BME280;2967;51.488;6.618;2024-02-04T14:10:57;101821.69;;;11.95;100.00
5883;BME280;2967;51.488;6.618;2024-02-04T14:16:00;101830.44;;;11.97;100.00
5883;BME280;2967;51.488;6.618;2024-02-04T14:21:05;101825.81;;;12.01;100.00
5883;BME280;2967;51.488;6.618;2024-02-04T14:26:17;101800.31;;;11.83;100.00
5883;BME280;2967;51.488;6.618;2024-02-04T14:31:19;101831.56;;;12.09;100.00
5883;BME280;2967;51.488;6.618;2024-02-04T14:36:23;101836.94;;;12.07;100.00
5883;BME280;2967;51.488;6.618;2024-02-04T14:41:27;101817.03;;;12.00;100.00
5883;BME280;2967;51.488;6.618;2024-02-04T14:46:30;101826.00;;;12.13;100.00
5883;BME280;2967;51.488;6.618;2024-02-04T14:51:33;101815.59;;;12.10;100.00
5883;BME280;2967;51.488;6.618;2024-02-04T14:56:39;101808.38;;;12.12;100.00
5883;BME280;2967;51.488;6.618;2024-02-04T15:01:44;101819.59;;;12.17;100.00
5883;BME280;2967;51.488;6.618;2024-02-04T15:06:47;101797.78;;;12.12;100.00
5883;BME280;2967;51.488;6.618;2024-02-04T15:11:52;101789.75;;;11.98;100.00
5883;BME280;2967;51.488;6.618;2024-02-04T15:16:56;101782.81;;;11.96;100.00
5883;BME280;2967;51.488;6.618;2024-02-04T15:22:00;101808.31;;;12.14;100.00
5883;BME280;2967;51.488;6.618;2024-02-04T15:27:05;101772.94;;;11.82;100.00
5883;BME280;2967;51.488;6.618;2024-02-04T15:32:15;101802.47;;;12.07;100.00
5883;BME280;2967;51.488;6.618;2024-02-04T15:37:18;101763.88;;;11.86;100.00
5883;BME280;2967;51.488;6.618;2024-02-04T15:42:23;101786.97;;;11.84;100.00
5883;BME280;2967;51.488;6.618;2024-02-04T15:47:28;101721.88;;;11.46;100.00
5883;BME280;2967;51.488;6.618;2024-02-04T15:52:34;101718.31;;;11.47;100.00
5883;BME280;2967;51.488;6.618;2024-02-04T15:57:45;101749.34;;;11.78;100.00
5883;BME280;2967;51.488;6.618;2024-02-04T16:02:51;101760.13;;;11.75;100.00
5883;BME280;2967;51.488;6.618;2024-02-04T16:07:55;101774.13;;;11.77;100.00
5883;BME280;2967;51.488;6.618;2024-02-04T16:13:06;101702.97;;;11.37;100.00
5883;BME280;2967;51.488;6.618;2024-02-04T16:18:17;101758.47;;;11.72;100.00
5883;BME280;2967;51.488;6.618;2024-02-04T16:23:20;101749.75;;;11.53;100.00
5883;BME280;2967;51.488;6.618;2024-02-04T16:28:24;101750.44;;;11.74;100.00
5883;BME280;2967;51.488;6.618;2024-02-04T16:33:27;101742.81;;;11.51;100.00
5883;BME280;2967;51.488;6.618;2024-02-04T16:38:30;101743.06;;;11.46;100.00
5883;BME280;2967;51.488;6.618;2024-02-04T16:43:37;101740.25;;;11.66;100.00
5883;BME280;2967;51.488;6.618;2024-02-04T16:48:40;101753.75;;;11.77;100.00
5883;BME280;2967;51.488;6.618;2024-02-04T16:53:45;101748.63;;;11.74;100.00
5883;BME280;2967;51.488;6.618;2024-02-04T16:58:50;101705.19;;;11.61;100.00
5883;BME280;2967;51.488;6.618;2024-02-04T17:03:55;101717.84;;;11.72;100.00
5883;BME280;2967;51.488;6.618;2024-02-04T17:09:00;101739.63;;;11.94;100.00
5883;BME280;2967;51.488;6.618;2024-02-04T17:14:08;101728.38;;;11.73;100.00
5883;BME280;2967;51.488;6.618;2024-02-04T17:19:22;101658.09;;;11.18;100.00
5883;BME280;2967;51.488;6.618;2024-02-04T17:24:30;101730.50;;;11.67;100.00
5883;BME280;2967;51.488;6.618;2024-02-04T17:29:48;101720.91;;;11.64;100.00
5883;BME280;2967;51.488;6.618;2024-02-04T17:34:51;101696.13;;;11.65;100.00
5883;BME280;2967;51.488;6.618;2024-02-04T17:39:55;101736.69;;;11.83;100.00
5883;BME280;2967;51.488;6.618;2024-02-04T17:45:00;101731.66;;;11.78;100.00
5883;BME280;2967;51.488;6.618;2024-02-04T17:50:10;101720.66;;;11.69;100.00
5883;BME280;2967;51.488;6.618;2024-02-04T17:55:13;101727.09;;;11.80;100.00
5883;BME280;2967;51.488;6.618;2024-02-04T18:00:18;101713.16;;;11.92;100.00
5883;BME280;2967;51.488;6.618;2024-02-04T18:05:21;101743.34;;;12.05;100.00
5883;BME280;2967;51.488;6.618;2024-02-04T18:10:25;101742.59;;;11.88;100.00
5883;BME280;2967;51.488;6.618;2024-02-04T18:15:29;101702.13;;;11.69;100.00
5883;BME280;2967;51.488;6.618;2024-02-04T18:20:32;101712.97;;;11.80;100.00
5883;BME280;2967;51.488;6.618;2024-02-04T18:25:39;101677.94;;;11.59;100.00
5883;BME280;2967;51.488;6.618;2024-02-04T18:30:50;101707.84;;;11.77;100.00
5883;BME280;2967;51.488;6.618;2024-02-04T18:35:58;101701.81;;;11.25;100.00
5883;BME280;2967;51.488;6.618;2024-02-04T18:41:25;101690.47;;;11.23;100.00
5883;BME280;2967;51.488;6.618;2024-02-04T18:46:38;101742.66;;;11.71;100.00
5883;BME280;2967;51.488;6.618;2024-02-04T18:51:43;101728.97;;;11.63;100.00
5883;BME280;2967;51.488;6.618;2024-02-04T18:56:49;101731.25;;;11.36;100.00
5883;BME280;2967;51.488;6.618;2024-02-04T19:01:53;101697.84;;;11.34;100.00
5883;BME280;2967;51.488;6.618;2024-02-04T19:06:57;101728.47;;;11.39;100.00
5883;BME280;2967;51.488;6.618;2024-02-04T19:12:03;101686.94;;;11.07;100.00
5883;BME280;2967;51.488;6.618;2024-02-04T19:17:07;101712.88;;;11.33;100.00
5883;BME280;2967;51.488;6.618;2024-02-04T19:22:10;101707.16;;;11.41;100.00
5883;BME280;2967;51.488;6.618;2024-02-04T19:27:13;101716.75;;;11.43;100.00
5883;BME280;2967;51.488;6.618;2024-02-04T19:32:17;101686.63;;;11.29;100.00
5883;BME280;2967;51.488;6.618;2024-02-04T19:37:21;101683.47;;;11.22;100.00
5883;BME280;2967;51.488;6.618;2024-02-04T19:42:24;101727.09;;;11.48;100.00
5883;BME280;2967;51.488;6.618;2024-02-04T19:47:28;101688.06;;;11.19;100.00
5883;BME280;2967;51.488;6.618;2024-02-04T19:52:32;101678.41;;;11.18;100.00
5883;BME280;2967;51.488;6.618;2024-02-04T19:57:36;101669.63;;;11.17;100.00
5883;BME280;2967;51.488;6.618;2024-02-04T20:02:42;101713.78;;;11.49;100.00
5883;BME280;2967;51.488;6.618;2024-02-04T20:07:48;101687.44;;;11.46;100.00
5883;BME280;2967;51.488;6.618;2024-02-04T20:12:51;101689.66;;;11.38;100.00
5883;BME280;2967;51.488;6.618;2024-02-04T20:18:04;101680.13;;;11.19;100.00
5883;BME280;2967;51.488;6.618;2024-02-04T20:23:07;101706.78;;;11.48;100.00
5883;BME280;2967;51.488;6.618;2024-02-04T20:28:10;101715.97;;;11.58;100.00
5883;BME280;2967;51.488;6.618;2024-02-04T20:33:15;101712.38;;;11.59;100.00
5883;BME280;2967;51.488;6.618;2024-02-04T20:38:17;101720.22;;;11.61;100.00
5883;BME280;2967;51.488;6.618;2024-02-04T20:43:21;101679.94;;;11.54;100.00
5883;BME280;2967;51.488;6.618;2024-02-04T20:48:26;101712.72;;;11.84;100.00
5883;BME280;2967;51.488;6.618;2024-02-04T20:53:29;101711.19;;;11.80;100.00
5883;BME280;2967;51.488;6.618;2024-02-04T20:58:33;101707.84;;;11.77;100.00
5883;BME280;2967;51.488;6.618;2024-02-04T21:03:37;101700.97;;;11.57;100.00
5883;BME280;2967;51.488;6.618;2024-02-04T21:08:41;101706.47;;;11.70;100.00
5883;BME280;2967;51.488;6.618;2024-02-04T21:13:43;101707.25;;;11.87;100.00
5883;BME280;2967;51.488;6.618;2024-02-04T21:18:48;101677.00;;;11.60;100.00
5883;BME280;2967;51.488;6.618;2024-02-04T21:23:51;101699.91;;;11.77;100.00
5883;BME280;2967;51.488;6.618;2024-02-04T21:28:56;101689.50;;;11.89;100.00
5883;BME280;2967;51.488;6.618;2024-02-04T21:34:01;101558.41;;;11.17;100.00
5883;BME280;2967;51.488;6.618;2024-02-04T21:39:04;101687.41;;;11.94;100.00
5883;BME280;2967;51.488;6.618;2024-02-04T21:44:09;101692.28;;;12.02;100.00
5883;BME280;2967;51.488;6.618;2024-02-04T21:49:14;101672.38;;;11.79;100.00
5883;BME280;2967;51.488;6.618;2024-02-04T21:54:17;101651.84;;;11.67;100.00
5883;BME280;2967;51.488;6.618;2024-02-04T21:59:20;101681.44;;;11.91;100.00
5883;BME280;2967;51.488;6.618;2024-02-04T22:04:29;101701.69;;;11.92;100.00
5883;BME280;2967;51.488;6.618;2024-02-04T22:09:32;101711.22;;;11.96;100.00
5883;BME280;2967;51.488;6.618;2024-02-04T22:14:35;101643.31;;;11.62;100.00
5883;BME280;2967;51.488;6.618;2024-02-04T22:19:39;101689.88;;;11.97;100.00
5883;BME280;2967;51.488;6.618;2024-02-04T22:24:54;101701.03;;;11.88;100.00
5883;BME280;2967;51.488;6.618;2024-02-04T22:29:59;101707.94;;;11.91;100.00
5883;BME280;2967;51.488;6.618;2024-02-04T22:35:06;101693.75;;;11.92;100.00
5883;BME280;2967;51.488;6.618;2024-02-04T22:40:11;101671.44;;;11.80;100.00
5883;BME280;2967;51.488;6.618;2024-02-04T22:45:15;101657.50;;;11.77;100.00
5883;BME280;2967;51.488;6.618;2024-02-04T22:50:19;101707.19;;;12.04;100.00
5883;BME280;2967;51.488;6.618;2024-02-04T22:55:22;101677.69;;;11.95;100.00
5883;BME280;2967;51.488;6.618;2024-02-04T23:00:25;101703.56;;;12.05;100.00
5883;BME280;2967;51.488;6.618;2024-02-04T23:05:33;101698.53;;;12.01;100.00
5883;BME280;2967;51.488;6.618;2024-02-04T23:10:36;101730.53;;;12.13;100.00
5883;BME280;2967;51.488;6.618;2024-02-04T23:15:38;101641.22;;;11.67;100.00
5883;BME280;2967;51.488;6.618;2024-02-04T23:20:48;101733.94;;;12.15;100.00
5883;BME280;2967;51.488;6.618;2024-02-04T23:25:50;101731.72;;;12.23;100.00
5883;BME280;2967;51.488;6.618;2024-02-04T23:30:54;101701.34;;;12.13;100.00
5883;BME280;2967;51.488;6.618;2024-02-04T23:35:58;101635.78;;;11.70;100.00
5883;BME280;2967;51.488;6.618;2024-02-04T23:41:00;101728.81;;;12.28;100.00
5883;BME280;2967;51.488;6.618;2024-02-04T23:46:05;101736.19;;;12.23;100.00
5883;BME280;2967;51.488;6.618;2024-02-04T23:51:10;101691.53;;;12.00;100.00
5883;BME280;2967;51.488;6.618;2024-02-04T23:56:12;101740.00;;;12.17;100.00
